createdAt,value
2023-05-10T00:04:22.386Z,99538.06
2023-05-10T00:09:23.858Z,99536.63
2023-05-10T00:14:25.266Z,99528.75
2023-05-10T00:19:26.667Z,99532.81
2023-05-10T00:24:28.051Z,99531.16
2023-05-10T00:29:29.427Z,99521.06
2023-05-10T00:34:31.312Z,99516.72
2023-05-10T00:39:32.714Z,99516.44
2023-05-10T00:44:34.152Z,99505.78
2023-05-10T00:49:36.155Z,99500.88
2023-05-10T00:54:37.809Z,99499.81
2023-05-10T00:59:39.365Z,99497.88
2023-05-10T01:04:40.894Z,99500.38
2023-05-10T01:09:42.344Z,99505.78
2023-05-10T01:14:43.728Z,99494.25
2023-05-10T01:19:45.161Z,99498.38
2023-05-10T01:25:04.009Z,99490.69
2023-05-10T01:30:24.280Z,99493.19
2023-05-10T01:35:48.679Z,99496.25
2023-05-10T01:40:52.961Z,99481.72
2023-05-10T01:46:01.510Z,99480.03
2023-05-10T01:51:02.888Z,99483.41
2023-05-10T01:56:04.374Z,99484.50
2023-05-10T02:01:05.839Z,99477.81
2023-05-10T02:06:07.677Z,99477.31
2023-05-10T02:11:09.081Z,99480.59
2023-05-10T02:16:10.466Z,99476.75
2023-05-10T02:21:11.961Z,99468.56
2023-05-10T02:26:14.288Z,99470.19
2023-05-10T02:31:15.663Z,99469.63
2023-05-10T02:36:17.073Z,99467.97
2023-05-10T02:41:18.481Z,99471.28
2023-05-10T02:46:19.974Z,99464.16
2023-05-10T02:51:21.422Z,99463.59
2023-05-10T02:56:30.729Z,99463.59
2023-05-10T03:01:32.173Z,99470.69
2023-05-10T03:06:33.780Z,99468.25
2023-05-10T03:11:57.759Z,99473.94
2023-05-10T03:17:09.800Z,99473.19
2023-05-10T03:22:11.628Z,99469.13
2023-05-10T03:27:12.991Z,99465.19
2023-05-10T03:32:14.374Z,99463.59
2023-05-10T03:37:15.852Z,99456.47
2023-05-10T03:42:18.704Z,99455.34
2023-05-10T03:47:20.742Z,99459.50
2023-05-10T03:52:22.123Z,99469.06
2023-05-10T03:57:23.509Z,99477.25
2023-05-10T04:02:25.035Z,99472.31
2023-05-10T04:07:26.688Z,99474.44
2023-05-10T04:12:28.082Z,99484.56
2023-05-10T04:17:29.508Z,99476.44
2023-05-10T04:22:31.328Z,99478.91
2023-05-10T04:27:32.714Z,99474.53
2023-05-10T04:32:34.144Z,99466.56
2023-05-10T04:37:35.748Z,99468.56
2023-05-10T04:42:37.156Z,99465.59
2023-05-10T04:47:38.657Z,99463.16
2023-05-10T04:52:40.044Z,99454.50
2023-05-10T04:57:41.442Z,99452.41
2023-05-10T05:02:46.479Z,99456.22
2023-05-10T05:07:47.922Z,99455.38
2023-05-10T05:12:49.329Z,99453.84
2023-05-10T05:17:50.742Z,99456.34
2023-05-10T05:22:52.121Z,99460.97
2023-05-10T05:27:53.495Z,99458.56
2023-05-10T05:32:54.894Z,99448.75
2023-05-10T05:37:56.724Z,99440.59
2023-05-10T05:42:58.103Z,99436.47
2023-05-10T05:47:59.771Z,99443.91
2023-05-10T05:53:01.809Z,99435.94
2023-05-10T05:58:03.490Z,99455.13
2023-05-10T06:03:05.058Z,99453.81
2023-05-10T06:08:06.771Z,99451.59
2023-05-10T06:13:08.198Z,99469.88
2023-05-10T06:18:09.799Z,99465.59
2023-05-10T06:23:11.829Z,99472.84
2023-05-10T06:28:13.213Z,99472.16
2023-05-10T06:33:14.636Z,99469.78
2023-05-10T06:38:17.848Z,99479.09
2023-05-10T06:43:19.234Z,99472.34
2023-05-10T06:48:20.658Z,99469.91
2023-05-10T06:53:22.074Z,99472.38
2023-05-10T06:58:23.585Z,99483.09
2023-05-10T07:03:24.972Z,99480.56
2023-05-10T07:08:26.352Z,99479.00
2023-05-10T07:13:27.802Z,99478.44
2023-05-10T07:18:29.705Z,99477.63
2023-05-10T07:23:31.344Z,99482.59
2023-05-10T07:28:33.172Z,99471.38
2023-05-10T07:33:34.550Z,99479.66
2023-05-10T07:38:35.952Z,99481.78
2023-05-10T07:43:37.340Z,99476.59
2023-05-10T07:48:38.804Z,99478.50
2023-05-10T07:53:40.191Z,99481.22
2023-05-10T07:58:41.561Z,99475.53
2023-05-10T08:03:43.006Z,99478.53
2023-05-10T08:08:46.326Z,99478.53
2023-05-10T08:13:47.995Z,99474.44
2023-05-10T08:18:50.128Z,99476.38
2023-05-10T08:23:51.606Z,99466.81
2023-05-10T08:28:52.984Z,99479.16
2023-05-10T08:33:54.374Z,99482.72
2023-05-10T08:38:56.041Z,99483.25
2023-05-10T08:43:57.463Z,99492.28
2023-05-10T08:48:58.899Z,99490.34
2023-05-10T08:54:00.436Z,99505.75
2023-05-10T08:59:01.968Z,99509.88
2023-05-10T09:04:04.009Z,99519.19
2023-05-10T09:09:05.472Z,99517.00
2023-05-10T09:14:06.902Z,99515.84
2023-05-10T09:19:09.503Z,99522.47
2023-05-10T09:24:11.025Z,99518.38
2023-05-10T09:29:12.486Z,99518.69
2023-05-10T09:34:41.100Z,99508.88
2023-05-10T09:39:42.719Z,99536.81
2023-05-10T09:44:44.362Z,99522.88
2023-05-10T09:49:51.000Z,99535.16
2023-05-10T09:54:55.505Z,99529.75
2023-05-10T09:59:58.371Z,99521.03
2023-05-10T10:05:02.035Z,99519.66
2023-05-10T10:10:04.637Z,99518.84
2023-05-10T10:15:07.566Z,99518.25
2023-05-10T10:20:11.752Z,99519.63
2023-05-10T10:25:14.911Z,99516.94
2023-05-10T10:30:28.469Z,99519.66
2023-05-10T10:35:33.242Z,99519.97
2023-05-10T10:40:35.153Z,99524.31
2023-05-10T10:45:41.341Z,99532.53
2023-05-10T10:50:45.826Z,99528.97
2023-05-10T10:55:50.311Z,99523.47
2023-05-10T11:00:51.791Z,99524.59
2023-05-10T11:05:54.200Z,99522.69
2023-05-10T11:11:01.559Z,99522.94
2023-05-10T11:16:12.054Z,99520.19
2023-05-10T11:21:14.147Z,99528.69
2023-05-10T11:26:15.566Z,99526.50
2023-05-10T11:31:17.548Z,99528.16
2023-05-10T11:36:20.270Z,99541.28
2023-05-10T11:41:25.325Z,99540.72
2023-05-10T11:46:28.185Z,99540.44
2023-05-10T11:51:29.711Z,99545.97
2023-05-10T11:56:31.111Z,99537.69
2023-05-10T12:01:32.492Z,99541.56
2023-05-10T12:06:37.552Z,99542.69
2023-05-10T12:11:43.474Z,99550.66
2023-05-10T12:16:45.674Z,99548.44
2023-05-10T12:21:47.215Z,99550.41
2023-05-10T12:26:49.274Z,99549.88
2023-05-10T12:31:58.115Z,99557.53
2023-05-10T12:36:59.665Z,99557.53
2023-05-10T12:42:01.323Z,99553.97
2023-05-10T12:47:02.798Z,99558.63
2023-05-10T12:52:04.257Z,99561.63
2023-05-10T12:57:05.748Z,99572.56
2023-05-10T13:02:07.308Z,99570.69
2023-05-10T13:07:08.680Z,99569.06
2023-05-10T13:12:10.333Z,99566.88
2023-05-10T13:17:11.934Z,99568.84
2023-05-10T13:22:13.358Z,99567.72
2023-05-10T13:27:14.792Z,99570.22
2023-05-10T13:32:16.167Z,99568.53
2023-05-10T13:37:17.647Z,99564.97
2023-05-10T13:42:19.206Z,99565.50
2023-05-10T13:47:22.479Z,99565.19
2023-05-10T13:52:23.972Z,99563.28
2023-05-10T13:57:25.539Z,99561.38
2023-05-10T14:02:28.340Z,99559.47
2023-05-10T14:07:29.813Z,99557.53
2023-05-10T14:12:31.242Z,99555.06
2023-05-10T14:17:32.649Z,99552.66
2023-05-10T14:22:34.182Z,99545.25
2023-05-10T14:27:35.606Z,99552.34
2023-05-10T14:32:37.810Z,99548.00
2023-05-10T14:37:39.431Z,99546.09
2023-05-10T14:42:40.838Z,99548.56
2023-05-10T14:47:42.263Z,99550.22
2023-05-10T14:52:43.722Z,99560.66
2023-05-10T14:57:47.305Z,99560.06
2023-05-10T15:02:49.223Z,99560.34
2023-05-10T15:07:51.149Z,99555.41
2023-05-10T15:12:52.563Z,99560.63
2023-05-10T15:17:53.976Z,99565.00
2023-05-10T15:22:55.611Z,99566.88
2023-05-10T15:27:57.035Z,99571.28
2023-05-10T15:32:58.522Z,99582.44
2023-05-10T15:38:00.027Z,99584.75
2023-05-10T15:43:01.630Z,99586.06
2023-05-10T15:48:03.446Z,99581.97
2023-05-10T15:53:05.002Z,99592.75
2023-05-10T15:58:06.390Z,99588.06
2023-05-10T16:03:07.967Z,99597.34
2023-05-10T16:08:09.406Z,99603.59
2023-05-10T16:13:10.799Z,99604.06
2023-05-10T16:18:12.431Z,99602.13
2023-05-10T16:23:14.975Z,99604.81
2023-05-10T16:28:16.504Z,99610.22
2023-05-10T16:33:17.875Z,99619.47
2023-05-10T16:38:21.368Z,99615.84
2023-05-10T16:43:25.368Z,99621.81
2023-05-10T16:48:27.568Z,99625.06
2023-05-10T16:53:29.011Z,99633.56
2023-05-10T16:58:30.378Z,99635.47
2023-05-10T17:03:31.837Z,99640.88
2023-05-10T17:08:33.424Z,99653.53
2023-05-10T17:13:34.863Z,99645.78
2023-05-10T17:18:36.445Z,99651.50
2023-05-10T17:23:37.844Z,99655.50
2023-05-10T17:28:39.222Z,99661.81
2023-05-10T17:33:40.611Z,99663.81
2023-05-10T17:38:43.254Z,99669.28
2023-05-10T17:43:44.656Z,99676.38
2023-05-10T17:48:46.043Z,99678.81
2023-05-10T17:53:47.589Z,99682.63
2023-05-10T17:58:50.294Z,99687.59
2023-05-10T18:03:52.712Z,99682.16
2023-05-10T18:08:54.098Z,99684.00
2023-05-10T18:13:55.704Z,99689.16
2023-05-10T18:18:57.867Z,99698.00
2023-05-10T18:23:59.338Z,99706.22
2023-05-10T18:29:02.711Z,99705.81
2023-05-10T18:34:05.539Z,99703.66
2023-05-10T18:39:06.920Z,99710.47
2023-05-10T18:44:09.153Z,99716.94
2023-05-10T18:49:10.532Z,99721.66
2023-05-10T18:54:12.000Z,99722.34
2023-05-10T18:59:13.609Z,99727.03
2023-05-10T19:04:15.021Z,99732.50
2023-05-10T19:09:16.479Z,99735.16
2023-05-10T19:14:17.875Z,99738.97
2023-05-10T19:19:21.125Z,99750.66
2023-05-10T19:24:24.811Z,99752.97
2023-05-10T19:29:27.302Z,99757.34
2023-05-10T19:34:29.829Z,99760.66
2023-05-10T19:39:32.421Z,99762.66
2023-05-10T19:44:33.899Z,99763.16
2023-05-10T19:49:38.579Z,99758.59
2023-05-10T19:54:40.030Z,99761.44
2023-05-10T19:59:41.431Z,99764.47
2023-05-10T20:04:42.820Z,99759.81
2023-05-10T20:09:44.317Z,99762.09
2023-05-10T20:14:45.836Z,99767.47
2023-05-10T20:19:47.216Z,99761.09
2023-05-10T20:24:48.663Z,99759.53
2023-05-10T20:29:50.031Z,99769.63
2023-05-10T20:34:51.431Z,99764.41
2023-05-10T20:39:52.794Z,99760.25
2023-05-10T20:44:54.179Z,99771.75
2023-05-10T20:49:55.546Z,99763.31
2023-05-10T20:54:56.947Z,99765.50
2023-05-10T20:59:58.354Z,99773.09
2023-05-10T21:04:59.777Z,99772.25
2023-05-10T21:10:01.190Z,99772.78
2023-05-10T21:15:03.432Z,99770.06
2023-05-10T21:20:05.263Z,99764.00
2023-05-10T21:25:07.165Z,99774.09
2023-05-10T21:30:09.143Z,99777.41
2023-05-10T21:35:10.545Z,99774.34
2023-05-10T21:40:12.786Z,99774.91
2023-05-10T21:45:14.170Z,99773.53
2023-05-10T21:50:15.719Z,99772.19
2023-05-10T21:55:17.233Z,99776.81
2023-05-10T22:00:19.573Z,99784.22
2023-05-10T22:05:21.315Z,99789.69
2023-05-10T22:10:22.702Z,99786.44
2023-05-10T22:15:24.084Z,99786.84
2023-05-10T22:20:25.494Z,99791.47
2023-05-10T22:25:26.980Z,99784.09
2023-05-10T22:30:30.402Z,99796.22
2023-05-10T22:35:32.947Z,99789.56
2023-05-10T22:40:34.336Z,99785.72
2023-05-10T22:45:35.762Z,99783.63
2023-05-10T22:50:37.373Z,99786.28
2023-05-10T22:55:38.802Z,99788.94
2023-05-10T23:00:40.182Z,99785.72
2023-05-10T23:05:41.633Z,99795.53
2023-05-10T23:10:43.016Z,99791.75
2023-05-10T23:15:44.399Z,99800.34
2023-05-10T23:20:45.776Z,99795.81
2023-05-10T23:25:47.160Z,99792.81
2023-05-10T23:30:54.467Z,99791.06
2023-05-10T23:35:55.994Z,99802.31
2023-05-10T23:40:57.422Z,99798.53
2023-05-10T23:45:59.262Z,99801.09
2023-05-10T23:51:00.867Z,99795.47
2023-05-10T23:56:02.294Z,99789.50
